sensor_id;sensor_type;location;lat;lon;timestamp;temperature;humidity
27384;DHT22;14851;51.166;4.760;2023-02-28T00:01:06;0.60;99.90
27384;DHT22;14851;51.166;4.760;2023-02-28T00:03:32;0.60;99.90
27384;DHT22;14851;51.166;4.760;2023-02-28T00:06:05;0.60;99.90
27384;DHT22;14851;51.166;4.760;2023-02-28T00:08:31;0.60;99.90
27384;DHT22;14851;51.166;4.760;2023-02-28T00:11:02;0.60;99.90
27384;DHT22;14851;51.166;4.760;2023-02-28T00:13:28;0.50;99.90
27384;DHT22;14851;51.166;4.760;2023-02-28T00:16:06;0.60;99.90
27384;DHT22;14851;51.166;4.760;2023-02-28T00:18:33;0.50;99.90
27384;DHT22;14851;51.166;4.760;2023-02-28T00:20:59;0.40;99.90
27384;DHT22;14851;51.166;4.760;2023-02-28T00:23:26;0.40;99.90
27384;DHT22;14851;51.166;4.760;2023-02-28T00:25:54;0.40;99.90
27384;DHT22;14851;51.166;4.760;2023-02-28T00:28:23;0.30;99.90
27384;DHT22;14851;51.166;4.760;2023-02-28T00:30:49;0.30;99.90
27384;DHT22;14851;51.166;4.760;2023-02-28T00:33:17;0.30;99.90
27384;DHT22;14851;51.166;4.760;2023-02-28T00:35:43;0.20;99.90
27384;DHT22;14851;51.166;4.760;2023-02-28T00:38:12;0.20;99.90
27384;DHT22;14851;51.166;4.760;2023-02-28T00:40:38;0.20;99.90
27384;DHT22;14851;51.166;4.760;2023-02-28T00:43:04;0.10;99.90
27384;DHT22;14851;51.166;4.760;2023-02-28T00:45:30;0.00;99.90
27384;DHT22;14851;51.166;4.760;2023-02-28T00:47:56;0.00;99.90
27384;DHT22;14851;51.166;4.760;2023-02-28T00:50:22;-0.10;99.90
27384;DHT22;14851;51.166;4.760;2023-02-28T00:52:48;0.00;99.90
27384;DHT22;14851;51.166;4.760;2023-02-28T00:55:17;-0.10;99.90
27384;DHT22;14851;51.166;4.760;2023-02-28T00:57:44;-0.10;99.90
27384;DHT22;14851;51.166;4.760;2023-02-28T01:00:10;-0.20;99.90
27384;DHT22;14851;51.166;4.760;2023-02-28T01:02:36;-0.20;99.90
27384;DHT22;14851;51.166;4.760;2023-02-28T01:05:02;-0.30;99.90
27384;DHT22;14851;51.166;4.760;2023-02-28T01:07:29;-0.30;99.90
27384;DHT22;14851;51.166;4.760;2023-02-28T01:09:55;-0.30;99.90
27384;DHT22;14851;51.166;4.760;2023-02-28T01:12:21;-0.30;99.90
27384;DHT22;14851;51.166;4.760;2023-02-28T01:14:49;-0.30;99.90
27384;DHT22;14851;51.166;4.760;2023-02-28T01:17:15;-0.30;99.90
27384;DHT22;14851;51.166;4.760;2023-02-28T01:19:43;-0.40;99.90
27384;DHT22;14851;51.166;4.760;2023-02-28T01:22:09;-0.40;99.90
27384;DHT22;14851;51.166;4.760;2023-02-28T01:24:35;-0.40;99.90
27384;DHT22;14851;51.166;4.760;2023-02-28T01:27:03;-0.40;99.90
27384;DHT22;14851;51.166;4.760;2023-02-28T01:29:29;-0.40;99.90
27384;DHT22;14851;51.166;4.760;2023-02-28T01:31:55;-0.50;99.90
27384;DHT22;14851;51.166;4.760;2023-02-28T01:34:22;-0.50;99.90
27384;DHT22;14851;51.166;4.760;2023-02-28T01:36:48;-0.50;99.90
27384;DHT22;14851;51.166;4.760;2023-02-28T01:39:14;-0.50;99.90
27384;DHT22;14851;51.166;4.760;2023-02-28T01:41:40;-0.50;99.90
27384;DHT22;14851;51.166;4.760;2023-02-28T01:47:12;-0.60;99.90
27384;DHT22;14851;51.166;4.760;2023-02-28T01:49:39;-0.60;99.90
27384;DHT22;14851;51.166;4.760;2023-02-28T01:52:05;-0.50;99.90
27384;DHT22;14851;51.166;4.760;2023-02-28T01:54:34;-0.50;99.90
27384;DHT22;14851;51.166;4.760;2023-02-28T01:57:10;-0.60;99.90
27384;DHT22;14851;51.166;4.760;2023-02-28T01:59:45;-0.50;99.90
27384;DHT22;14851;51.166;4.760;2023-02-28T02:02:18;-0.50;99.90
27384;DHT22;14851;51.166;4.760;2023-02-28T02:05:07;-0.50;99.90
27384;DHT22;14851;51.166;4.760;2023-02-28T02:07:40;-0.50;99.90
27384;DHT22;14851;51.166;4.760;2023-02-28T02:10:39;-0.50;99.90
27384;DHT22;14851;51.166;4.760;2023-02-28T02:21:16;-0.40;99.90
27384;DHT22;14851;51.166;4.760;2023-02-28T02:29:39;-0.50;99.90
27384;DHT22;14851;51.166;4.760;2023-02-28T02:32:40;-0.50;99.90
27384;DHT22;14851;51.166;4.760;2023-02-28T02:35:26;-0.50;99.90
27384;DHT22;14851;51.166;4.760;2023-02-28T02:38:11;-0.50;99.90
27384;DHT22;14851;51.166;4.760;2023-02-28T02:41:04;-0.50;99.90
27384;DHT22;14851;51.166;4.760;2023-02-28T02:43:40;-0.50;99.90
27384;DHT22;14851;51.166;4.760;2023-02-28T02:46:17;-0.50;99.90
27384;DHT22;14851;51.166;4.760;2023-02-28T02:48:45;-0.50;99.90
27384;DHT22;14851;51.166;4.760;2023-02-28T02:51:18;-0.50;99.90
27384;DHT22;14851;51.166;4.760;2023-02-28T02:53:51;-0.60;99.90
27384;DHT22;14851;51.166;4.760;2023-02-28T02:56:21;-0.60;99.90
27384;DHT22;14851;51.166;4.760;2023-02-28T02:58:50;-0.60;99.90
27384;DHT22;14851;51.166;4.760;2023-02-28T03:01:23;-0.60;99.90
27384;DHT22;14851;51.166;4.760;2023-02-28T03:03:59;-0.70;99.90
27384;DHT22;14851;51.166;4.760;2023-02-28T03:06:27;-0.70;99.90
27384;DHT22;14851;51.166;4.760;2023-02-28T03:08:53;-0.70;99.90
27384;DHT22;14851;51.166;4.760;2023-02-28T03:11:26;-0.70;99.90
27384;DHT22;14851;51.166;4.760;2023-02-28T03:22:59;-0.80;99.90
27384;DHT22;14851;51.166;4.760;2023-02-28T03:25:52;-0.80;99.90
27384;DHT22;14851;51.166;4.760;2023-02-28T03:33:47;-0.80;99.90
27384;DHT22;14851;51.166;4.760;2023-02-28T03:36:23;-0.90;99.90
27384;DHT22;14851;51.166;4.760;2023-02-28T03:39:01;-0.80;99.90
27384;DHT22;14851;51.166;4.760;2023-02-28T03:41:45;-0.80;99.90
27384;DHT22;14851;51.166;4.760;2023-02-28T03:44:14;-0.90;99.90
27384;DHT22;14851;51.166;4.760;2023-02-28T03:46:56;-0.90;99.90
27384;DHT22;14851;51.166;4.760;2023-02-28T03:49:27;-0.90;99.90
27384;DHT22;14851;51.166;4.760;2023-02-28T03:51:56;-0.90;99.90
27384;DHT22;14851;51.166;4.760;2023-02-28T03:54:31;-0.90;99.90
27384;DHT22;14851;51.166;4.760;2023-02-28T03:57:08;-0.90;99.90
27384;DHT22;14851;51.166;4.760;2023-02-28T03:59:49;-0.90;99.90
27384;DHT22;14851;51.166;4.760;2023-02-28T04:02:21;-0.90;99.90
27384;DHT22;14851;51.166;4.760;2023-02-28T04:04:46;-0.90;99.90
27384;DHT22;14851;51.166;4.760;2023-02-28T04:07:14;-0.90;99.90
27384;DHT22;14851;51.166;4.760;2023-02-28T04:09:40;-0.90;99.90
27384;DHT22;14851;51.166;4.760;2023-02-28T04:12:06;-1.00;99.90
27384;DHT22;14851;51.166;4.760;2023-02-28T04:14:32;-1.00;99.90
27384;DHT22;14851;51.166;4.760;2023-02-28T04:16:58;-1.00;99.90
27384;DHT22;14851;51.166;4.760;2023-02-28T04:19:27;-1.00;99.90
27384;DHT22;14851;51.166;4.760;2023-02-28T04:21:53;-1.00;99.90
27384;DHT22;14851;51.166;4.760;2023-02-28T04:24:23;-1.00;99.90
27384;DHT22;14851;51.166;4.760;2023-02-28T04:26:54;-0.90;99.90
27384;DHT22;14851;51.166;4.760;2023-02-28T04:29:29;-0.90;99.90
27384;DHT22;14851;51.166;4.760;2023-02-28T04:31:57;-0.80;99.90
27384;DHT22;14851;51.166;4.760;2023-02-28T04:34:30;-0.80;99.90
27384;DHT22;14851;51.166;4.760;2023-02-28T04:36:56;-0.80;99.90
27384;DHT22;14851;51.166;4.760;2023-02-28T04:39:23;-0.80;99.90
27384;DHT22;14851;51.166;4.760;2023-02-28T04:41:50;-0.70;99.90
27384;DHT22;14851;51.166;4.760;2023-02-28T04:44:16;-0.70;99.90
27384;DHT22;14851;51.166;4.760;2023-02-28T04:46:42;-0.60;99.90
27384;DHT22;14851;51.166;4.760;2023-02-28T04:49:11;-0.60;99.90
27384;DHT22;14851;51.166;4.760;2023-02-28T04:51:37;-0.60;99.90
27384;DHT22;14851;51.166;4.760;2023-02-28T04:54:03;-0.50;99.90
27384;DHT22;14851;51.166;4.760;2023-02-28T04:56:29;-0.50;99.90
27384;DHT22;14851;51.166;4.760;2023-02-28T04:58:54;-0.50;99.90
27384;DHT22;14851;51.166;4.760;2023-02-28T05:01:28;-0.50;99.90
27384;DHT22;14851;51.166;4.760;2023-02-28T05:03:57;-0.50;99.90
27384;DHT22;14851;51.166;4.760;2023-02-28T05:06:27;-0.40;99.90
27384;DHT22;14851;51.166;4.760;2023-02-28T05:08:53;-0.40;99.90
27384;DHT22;14851;51.166;4.760;2023-02-28T05:11:26;-0.40;99.90
27384;DHT22;14851;51.166;4.760;2023-02-28T05:13:55;-0.40;99.90
27384;DHT22;14851;51.166;4.760;2023-02-28T05:16:22;-0.30;99.90
27384;DHT22;14851;51.166;4.760;2023-02-28T05:18:50;-0.30;99.90
27384;DHT22;14851;51.166;4.760;2023-02-28T05:21:27;-0.30;99.90
27384;DHT22;14851;51.166;4.760;2023-02-28T05:23:53;-0.30;99.90
27384;DHT22;14851;51.166;4.760;2023-02-28T05:26:22;-0.30;99.90
27384;DHT22;14851;51.166;4.760;2023-02-28T05:28:48;-0.30;99.90
27384;DHT22;14851;51.166;4.760;2023-02-28T05:31:14;-0.30;99.90
27384;DHT22;14851;51.166;4.760;2023-02-28T05:33:40;-0.20;99.90
27384;DHT22;14851;51.166;4.760;2023-02-28T05:36:07;-0.20;99.90
27384;DHT22;14851;51.166;4.760;2023-02-28T05:38:33;-0.20;99.90
27384;DHT22;14851;51.166;4.760;2023-02-28T05:41:04;-0.20;99.90
27384;DHT22;14851;51.166;4.760;2023-02-28T05:43:30;-0.20;99.90
27384;DHT22;14851;51.166;4.760;2023-02-28T05:45:56;-0.20;99.90
27384;DHT22;14851;51.166;4.760;2023-02-28T05:48:22;-0.20;99.90
27384;DHT22;14851;51.166;4.760;2023-02-28T05:50:52;-0.20;99.90
27384;DHT22;14851;51.166;4.760;2023-02-28T05:53:21;-0.10;99.90
27384;DHT22;14851;51.166;4.760;2023-02-28T05:55:47;-0.20;99.90
27384;DHT22;14851;51.166;4.760;2023-02-28T05:58:12;-0.10;99.90
27384;DHT22;14851;51.166;4.760;2023-02-28T06:00:43;-0.10;99.90
27384;DHT22;14851;51.166;4.760;2023-02-28T06:03:08;-0.10;99.90
27384;DHT22;14851;51.166;4.760;2023-02-28T06:05:37;-0.10;99.90
27384;DHT22;14851;51.166;4.760;2023-02-28T06:08:06;-0.10;99.90
27384;DHT22;14851;51.166;4.760;2023-02-28T06:10:36;0.00;99.90
27384;DHT22;14851;51.166;4.760;2023-02-28T06:13:03;-0.10;99.90
27384;DHT22;14851;51.166;4.760;2023-02-28T06:15:32;0.00;99.90
27384;DHT22;14851;51.166;4.760;2023-02-28T06:17:58;0.00;99.90
27384;DHT22;14851;51.166;4.760;2023-02-28T06:20:26;0.00;99.90
27384;DHT22;14851;51.166;4.760;2023-02-28T06:22:58;0.00;99.90
27384;DHT22;14851;51.166;4.760;2023-02-28T06:25:27;0.00;99.90
27384;DHT22;14851;51.166;4.760;2023-02-28T06:27:54;0.00;99.90
27384;DHT22;14851;51.166;4.760;2023-02-28T06:30:20;0.00;99.90
27384;DHT22;14851;51.166;4.760;2023-02-28T06:32:53;0.00;99.90
27384;DHT22;14851;51.166;4.760;2023-02-28T06:35:21;0.00;99.90
27384;DHT22;14851;51.166;4.760;2023-02-28T06:37:49;0.00;99.90
27384;DHT22;14851;51.166;4.760;2023-02-28T06:40:15;0.10;99.90
27384;DHT22;14851;51.166;4.760;2023-02-28T06:42:41;0.10;99.90
27384;DHT22;14851;51.166;4.760;2023-02-28T06:45:07;0.10;99.90
27384;DHT22;14851;51.166;4.760;2023-02-28T06:47:36;0.10;99.90
27384;DHT22;14851;51.166;4.760;2023-02-28T06:50:03;0.10;99.90
27384;DHT22;14851;51.166;4.760;2023-02-28T06:52:32;0.00;99.90
27384;DHT22;14851;51.166;4.760;2023-02-28T06:54:58;0.10;99.90
27384;DHT22;14851;51.166;4.760;2023-02-28T06:57:32;0.10;99.90
27384;DHT22;14851;51.166;4.760;2023-02-28T06:59:59;0.10;99.90
27384;DHT22;14851;51.166;4.760;2023-02-28T07:02:28;0.10;99.90
27384;DHT22;14851;51.166;4.760;2023-02-28T07:04:54;0.10;99.90
27384;DHT22;14851;51.166;4.760;2023-02-28T07:07:20;0.10;99.90
27384;DHT22;14851;51.166;4.760;2023-02-28T07:09:46;0.10;99.90
27384;DHT22;14851;51.166;4.760;2023-02-28T07:12:15;0.10;99.90
27384;DHT22;14851;51.166;4.760;2023-02-28T07:14:41;0.10;99.90
27384;DHT22;14851;51.166;4.760;2023-02-28T07:17:08;0.10;99.90
27384;DHT22;14851;51.166;4.760;2023-02-28T07:19:38;0.20;99.90
27384;DHT22;14851;51.166;4.760;2023-02-28T07:22:05;0.20;99.90
27384;DHT22;14851;51.166;4.760;2023-02-28T07:24:30;0.30;99.90
27384;DHT22;14851;51.166;4.760;2023-02-28T07:26:56;0.30;99.90
27384;DHT22;14851;51.166;4.760;2023-02-28T07:29:25;0.30;99.90
27384;DHT22;14851;51.166;4.760;2023-02-28T07:31:53;0.40;99.90
27384;DHT22;14851;51.166;4.760;2023-02-28T07:34:19;0.60;99.90
27384;DHT22;14851;51.166;4.760;2023-02-28T07:36:45;0.60;99.90
27384;DHT22;14851;51.166;4.760;2023-02-28T07:39:15;0.70;99.90
27384;DHT22;14851;51.166;4.760;2023-02-28T07:41:41;0.80;99.90
27384;DHT22;14851;51.166;4.760;2023-02-28T07:44:10;0.80;99.90
27384;DHT22;14851;51.166;4.760;2023-02-28T07:46:36;0.90;99.90
27384;DHT22;14851;51.166;4.760;2023-02-28T07:49:03;1.00;99.90
27384;DHT22;14851;51.166;4.760;2023-02-28T07:51:29;1.00;99.90
27384;DHT22;14851;51.166;4.760;2023-02-28T07:53:56;1.00;99.90
27384;DHT22;14851;51.166;4.760;2023-02-28T07:56:24;1.00;99.90
27384;DHT22;14851;51.166;4.760;2023-02-28T07:58:52;1.00;99.90
27384;DHT22;14851;51.166;4.760;2023-02-28T08:01:19;1.10;99.90
27384;DHT22;14851;51.166;4.760;2023-02-28T08:03:45;1.20;99.90
27384;DHT22;14851;51.166;4.760;2023-02-28T08:06:21;1.20;99.90
27384;DHT22;14851;51.166;4.760;2023-02-28T08:08:55;1.30;99.90
27384;DHT22;14851;51.166;4.760;2023-02-28T08:11:24;1.30;99.90
27384;DHT22;14851;51.166;4.760;2023-02-28T08:13:51;1.40;99.90
27384;DHT22;14851;51.166;4.760;2023-02-28T08:16:18;1.40;99.90
27384;DHT22;14851;51.166;4.760;2023-02-28T08:18:57;1.60;99.90
27384;DHT22;14851;51.166;4.760;2023-02-28T08:21:24;1.70;99.90
27384;DHT22;14851;51.166;4.760;2023-02-28T08:23:51;1.70;99.90
27384;DHT22;14851;51.166;4.760;2023-02-28T08:26:18;1.70;99.90
27384;DHT22;14851;51.166;4.760;2023-02-28T08:28:46;1.80;99.90
27384;DHT22;14851;51.166;4.760;2023-02-28T08:31:16;1.90;99.90
27384;DHT22;14851;51.166;4.760;2023-02-28T08:33:42;1.90;99.90
27384;DHT22;14851;51.166;4.760;2023-02-28T08:36:11;2.00;99.90
27384;DHT22;14851;51.166;4.760;2023-02-28T08:38:39;2.00;99.90
27384;DHT22;14851;51.166;4.760;2023-02-28T08:41:07;2.00;99.90
27384;DHT22;14851;51.166;4.760;2023-02-28T08:43:35;2.00;99.90
27384;DHT22;14851;51.166;4.760;2023-02-28T08:46:02;1.90;99.90
27384;DHT22;14851;51.166;4.760;2023-02-28T08:48:30;2.00;99.90
27384;DHT22;14851;51.166;4.760;2023-02-28T08:51:04;2.00;99.90
27384;DHT22;14851;51.166;4.760;2023-02-28T08:53:31;2.10;99.90
27384;DHT22;14851;51.166;4.760;2023-02-28T08:56:05;2.20;99.90
27384;DHT22;14851;51.166;4.760;2023-02-28T08:58:31;2.20;99.90
27384;DHT22;14851;51.166;4.760;2023-02-28T09:00:57;2.30;99.90
27384;DHT22;14851;51.166;4.760;2023-02-28T09:03:24;2.30;99.90
27384;DHT22;14851;51.166;4.760;2023-02-28T09:05:55;2.30;99.90
27384;DHT22;14851;51.166;4.760;2023-02-28T09:08:22;2.30;99.90
27384;DHT22;14851;51.166;4.760;2023-02-28T09:10:48;2.40;99.90
27384;DHT22;14851;51.166;4.760;2023-02-28T09:13:14;2.40;99.90
27384;DHT22;14851;51.166;4.760;2023-02-28T09:15:40;2.50;99.90
27384;DHT22;14851;51.166;4.760;2023-02-28T09:18:06;2.60;99.90
27384;DHT22;14851;51.166;4.760;2023-02-28T09:20:31;2.60;99.90
27384;DHT22;14851;51.166;4.760;2023-02-28T09:22:57;2.60;99.90
27384;DHT22;14851;51.166;4.760;2023-02-28T09:25:26;2.60;99.90
27384;DHT22;14851;51.166;4.760;2023-02-28T09:27:54;2.70;99.90
27384;DHT22;14851;51.166;4.760;2023-02-28T09:30:20;2.70;99.90
27384;DHT22;14851;51.166;4.760;2023-02-28T09:32:46;2.70;99.90
27384;DHT22;14851;51.166;4.760;2023-02-28T09:35:18;2.70;99.90
27384;DHT22;14851;51.166;4.760;2023-02-28T09:37:44;2.70;99.90
27384;DHT22;14851;51.166;4.760;2023-02-28T09:40:12;2.80;99.90
27384;DHT22;14851;51.166;4.760;2023-02-28T09:42:38;2.90;99.90
27384;DHT22;14851;51.166;4.760;2023-02-28T09:45:39;2.90;99.90
27384;DHT22;14851;51.166;4.760;2023-02-28T09:48:39;2.90;99.90
27384;DHT22;14851;51.166;4.760;2023-02-28T09:51:03;2.90;99.90
27384;DHT22;14851;51.166;4.760;2023-02-28T09:53:34;3.00;99.90
27384;DHT22;14851;51.166;4.760;2023-02-28T09:56:14;2.90;99.90
27384;DHT22;14851;51.166;4.760;2023-02-28T09:58:49;2.90;99.90
27384;DHT22;14851;51.166;4.760;2023-02-28T10:04:36;3.00;99.90
27384;DHT22;14851;51.166;4.760;2023-02-28T10:09:59;3.20;99.90
27384;DHT22;14851;51.166;4.760;2023-02-28T10:12:28;3.30;99.90
27384;DHT22;14851;51.166;4.760;2023-02-28T10:14:56;3.20;99.90
27384;DHT22;14851;51.166;4.760;2023-02-28T10:17:26;3.20;99.90
27384;DHT22;14851;51.166;4.760;2023-02-28T10:24:55;3.30;99.90
27384;DHT22;14851;51.166;4.760;2023-02-28T10:27:34;3.30;99.90
27384;DHT22;14851;51.166;4.760;2023-02-28T10:30:01;3.40;99.90
27384;DHT22;14851;51.166;4.760;2023-02-28T10:32:32;3.40;99.90
27384;DHT22;14851;51.166;4.760;2023-02-28T10:37:45;3.40;99.90
27384;DHT22;14851;51.166;4.760;2023-02-28T10:40:33;3.50;99.90
27384;DHT22;14851;51.166;4.760;2023-02-28T10:43:27;3.60;99.90
27384;DHT22;14851;51.166;4.760;2023-02-28T10:46:12;3.60;99.90
27384;DHT22;14851;51.166;4.760;2023-02-28T10:51:15;3.60;99.90
27384;DHT22;14851;51.166;4.760;2023-02-28T10:53:52;3.60;99.90
27384;DHT22;14851;51.166;4.760;2023-02-28T10:56:21;3.60;99.90
27384;DHT22;14851;51.166;4.760;2023-02-28T11:01:41;3.60;99.90
27384;DHT22;14851;51.166;4.760;2023-02-28T11:07:00;3.60;99.90
27384;DHT22;14851;51.166;4.760;2023-02-28T11:09:39;3.70;99.90
27384;DHT22;14851;51.166;4.760;2023-02-28T11:12:26;3.70;99.90
27384;DHT22;14851;51.166;4.760;2023-02-28T11:14:58;3.80;99.90
27384;DHT22;14851;51.166;4.760;2023-02-28T11:17:30;3.80;99.90
27384;DHT22;14851;51.166;4.760;2023-02-28T11:20:10;3.80;99.90
27384;DHT22;14851;51.166;4.760;2023-02-28T11:22:44;3.80;99.90
27384;DHT22;14851;51.166;4.760;2023-02-28T11:25:24;3.90;99.90
27384;DHT22;14851;51.166;4.760;2023-02-28T11:27:57;3.90;99.90
27384;DHT22;14851;51.166;4.760;2023-02-28T11:30:28;3.90;99.90
27384;DHT22;14851;51.166;4.760;2023-02-28T11:32:57;4.00;99.90
27384;DHT22;14851;51.166;4.760;2023-02-28T11:35:36;4.00;99.90
27384;DHT22;14851;51.166;4.760;2023-02-28T11:38:09;4.00;99.90
27384;DHT22;14851;51.166;4.760;2023-02-28T11:43:53;4.00;99.90
27384;DHT22;14851;51.166;4.760;2023-02-28T11:52:06;4.10;99.90
27384;DHT22;14851;51.166;4.760;2023-02-28T12:00:34;4.20;99.90
27384;DHT22;14851;51.166;4.760;2023-02-28T12:03:26;4.20;99.90
27384;DHT22;14851;51.166;4.760;2023-02-28T12:11:51;4.30;99.90
27384;DHT22;14851;51.166;4.760;2023-02-28T12:20:40;4.40;99.90
27384;DHT22;14851;51.166;4.760;2023-02-28T12:26:14;4.50;99.90
27384;DHT22;14851;51.166;4.760;2023-02-28T12:28:45;4.40;99.90
27384;DHT22;14851;51.166;4.760;2023-02-28T12:31:34;4.50;99.90
27384;DHT22;14851;51.166;4.760;2023-02-28T12:34:10;4.60;99.90
27384;DHT22;14851;51.166;4.760;2023-02-28T12:36:37;4.60;99.90
27384;DHT22;14851;51.166;4.760;2023-02-28T12:44:35;4.50;99.90
27384;DHT22;14851;51.166;4.760;2023-02-28T12:47:05;4.50;99.90
27384;DHT22;14851;51.166;4.760;2023-02-28T12:52:14;4.40;99.60
27384;DHT22;14851;51.166;4.760;2023-02-28T12:54:51;4.40;99.30
27384;DHT22;14851;51.166;4.760;2023-02-28T12:57:44;4.50;98.60
27384;DHT22;14851;51.166;4.760;2023-02-28T13:00:17;4.50;99.00
27384;DHT22;14851;51.166;4.760;2023-02-28T13:10:53;4.50;99.60
27384;DHT22;14851;51.166;4.760;2023-02-28T13:13:27;4.50;99.90
27384;DHT22;14851;51.166;4.760;2023-02-28T13:21:28;4.70;99.90
27384;DHT22;14851;51.166;4.760;2023-02-28T13:24:03;4.70;99.90
27384;DHT22;14851;51.166;4.760;2023-02-28T13:28:59;4.70;98.80
27384;DHT22;14851;51.166;4.760;2023-02-28T13:31:26;4.70;99.70
27384;DHT22;14851;51.166;4.760;2023-02-28T13:36:31;4.80;99.40
27384;DHT22;14851;51.166;4.760;2023-02-28T13:39:03;4.80;99.90
27384;DHT22;14851;51.166;4.760;2023-02-28T13:46:38;4.80;99.90
27384;DHT22;14851;51.166;4.760;2023-02-28T13:49:26;4.90;99.90
27384;DHT22;14851;51.166;4.760;2023-02-28T14:06:09;5.00;99.90
27384;DHT22;14851;51.166;4.760;2023-02-28T14:08:47;5.10;99.90
27384;DHT22;14851;51.166;4.760;2023-02-28T14:11:37;5.10;99.60
27384;DHT22;14851;51.166;4.760;2023-02-28T14:14:06;5.10;99.70
27384;DHT22;14851;51.166;4.760;2023-02-28T14:16:46;5.10;99.30
27384;DHT22;14851;51.166;4.760;2023-02-28T14:22:01;5.10;99.90
27384;DHT22;14851;51.166;4.760;2023-02-28T14:33:27;5.20;98.70
27384;DHT22;14851;51.166;4.760;2023-02-28T14:36:04;5.20;98.50
27384;DHT22;14851;51.166;4.760;2023-02-28T14:41:16;5.10;98.90
27384;DHT22;14851;51.166;4.760;2023-02-28T14:43:51;5.20;99.20
27384;DHT22;14851;51.166;4.760;2023-02-28T14:46:18;5.20;99.70
27384;DHT22;14851;51.166;4.760;2023-02-28T14:48:48;5.20;99.70
27384;DHT22;14851;51.166;4.760;2023-02-28T14:51:22;5.20;99.10
27384;DHT22;14851;51.166;4.760;2023-02-28T14:54:01;5.20;98.80
27384;DHT22;14851;51.166;4.760;2023-02-28T14:56:34;5.20;99.90
27384;DHT22;14851;51.166;4.760;2023-02-28T14:59:00;5.20;99.80
27384;DHT22;14851;51.166;4.760;2023-02-28T15:01:27;5.30;99.90
27384;DHT22;14851;51.166;4.760;2023-02-28T15:04:05;5.20;99.60
27384;DHT22;14851;51.166;4.760;2023-02-28T15:06:34;5.20;99.90
27384;DHT22;14851;51.166;4.760;2023-02-28T15:09:17;5.30;99.90
27384;DHT22;14851;51.166;4.760;2023-02-28T15:11:48;5.30;99.90
27384;DHT22;14851;51.166;4.760;2023-02-28T15:14:20;5.30;99.90
27384;DHT22;14851;51.166;4.760;2023-02-28T15:17:00;5.30;99.70
27384;DHT22;14851;51.166;4.760;2023-02-28T15:19:33;5.30;99.70
27384;DHT22;14851;51.166;4.760;2023-02-28T15:22:04;5.30;99.90
27384;DHT22;14851;51.166;4.760;2023-02-28T15:24:37;5.20;99.40
27384;DHT22;14851;51.166;4.760;2023-02-28T15:27:11;5.20;99.50
27384;DHT22;14851;51.166;4.760;2023-02-28T15:29:49;5.20;99.90
27384;DHT22;14851;51.166;4.760;2023-02-28T15:32:28;5.20;99.90
27384;DHT22;14851;51.166;4.760;2023-02-28T15:34:55;5.20;99.80
27384;DHT22;14851;51.166;4.760;2023-02-28T15:40:17;5.20;99.90
27384;DHT22;14851;51.166;4.760;2023-02-28T15:43:13;5.20;99.90
27384;DHT22;14851;51.166;4.760;2023-02-28T15:45:58;5.20;99.90
27384;DHT22;14851;51.166;4.760;2023-02-28T15:48:53;5.20;99.90
27384;DHT22;14851;51.166;4.760;2023-02-28T15:51:37;5.20;99.70
27384;DHT22;14851;51.166;4.760;2023-02-28T15:54:10;5.20;99.20
27384;DHT22;14851;51.166;4.760;2023-02-28T15:56:53;5.20;99.80
27384;DHT22;14851;51.166;4.760;2023-02-28T15:59:27;5.20;99.40
27384;DHT22;14851;51.166;4.760;2023-02-28T16:04:36;5.10;99.30
27384;DHT22;14851;51.166;4.760;2023-02-28T16:07:05;5.10;99.30
27384;DHT22;14851;51.166;4.760;2023-02-28T16:09:31;5.10;99.80
27384;DHT22;14851;51.166;4.760;2023-02-28T16:12:02;5.10;99.60
27384;DHT22;14851;51.166;4.760;2023-02-28T16:14:29;5.10;99.60
27384;DHT22;14851;51.166;4.760;2023-02-28T16:17:02;5.00;99.60
27384;DHT22;14851;51.166;4.760;2023-02-28T16:19:31;5.00;99.60
27384;DHT22;14851;51.166;4.760;2023-02-28T16:21:58;5.00;99.90
27384;DHT22;14851;51.166;4.760;2023-02-28T16:24:24;5.00;99.90
27384;DHT22;14851;51.166;4.760;2023-02-28T16:26:54;5.00;99.90
27384;DHT22;14851;51.166;4.760;2023-02-28T16:29:29;4.90;99.70
27384;DHT22;14851;51.166;4.760;2023-02-28T16:31:56;4.90;99.90
27384;DHT22;14851;51.166;4.760;2023-02-28T16:34:23;4.80;99.90
27384;DHT22;14851;51.166;4.760;2023-02-28T16:36:50;4.80;99.90
27384;DHT22;14851;51.166;4.760;2023-02-28T16:39:16;4.80;99.90
27384;DHT22;14851;51.166;4.760;2023-02-28T16:41:44;4.70;99.90
27384;DHT22;14851;51.166;4.760;2023-02-28T16:44:35;4.70;99.90
27384;DHT22;14851;51.166;4.760;2023-02-28T16:47:02;4.70;99.90
27384;DHT22;14851;51.166;4.760;2023-02-28T16:49:29;4.70;99.90
27384;DHT22;14851;51.166;4.760;2023-02-28T16:51:55;4.70;99.90
27384;DHT22;14851;51.166;4.760;2023-02-28T16:54:21;4.70;99.90
27384;DHT22;14851;51.166;4.760;2023-02-28T16:56:48;4.60;99.90
27384;DHT22;14851;51.166;4.760;2023-02-28T16:59:20;4.50;99.90
27384;DHT22;14851;51.166;4.760;2023-02-28T17:01:47;4.50;99.90
27384;DHT22;14851;51.166;4.760;2023-02-28T17:04:13;4.40;99.90
27384;DHT22;14851;51.166;4.760;2023-02-28T17:06:42;4.40;99.90
27384;DHT22;14851;51.166;4.760;2023-02-28T17:09:22;4.30;99.90
27384;DHT22;14851;51.166;4.760;2023-02-28T17:11:52;4.30;99.90
27384;DHT22;14851;51.166;4.760;2023-02-28T17:14:18;4.20;99.90
27384;DHT22;14851;51.166;4.760;2023-02-28T17:16:44;4.20;99.90
27384;DHT22;14851;51.166;4.760;2023-02-28T17:19:15;4.20;99.90
27384;DHT22;14851;51.166;4.760;2023-02-28T17:21:41;4.20;99.90
27384;DHT22;14851;51.166;4.760;2023-02-28T17:24:08;4.10;99.90
27384;DHT22;14851;51.166;4.760;2023-02-28T17:26:39;4.00;99.90
27384;DHT22;14851;51.166;4.760;2023-02-28T17:29:11;3.90;99.90
27384;DHT22;14851;51.166;4.760;2023-02-28T17:31:38;3.90;99.90
27384;DHT22;14851;51.166;4.760;2023-02-28T17:34:04;3.90;99.90
27384;DHT22;14851;51.166;4.760;2023-02-28T17:36:31;3.80;99.90
27384;DHT22;14851;51.166;4.760;2023-02-28T17:38:59;3.80;99.90
27384;DHT22;14851;51.166;4.760;2023-02-28T17:41:25;3.70;99.90
27384;DHT22;14851;51.166;4.760;2023-02-28T17:43:53;3.70;99.90
27384;DHT22;14851;51.166;4.760;2023-02-28T17:46:22;3.60;99.90
27384;DHT22;14851;51.166;4.760;2023-02-28T17:48:50;3.60;99.90
27384;DHT22;14851;51.166;4.760;2023-02-28T17:51:21;3.50;99.90
27384;DHT22;14851;51.166;4.760;2023-02-28T17:53:49;3.40;99.90
27384;DHT22;14851;51.166;4.760;2023-02-28T17:56:25;3.40;99.90
27384;DHT22;14851;51.166;4.760;2023-02-28T17:58:53;3.40;99.90
27384;DHT22;14851;51.166;4.760;2023-02-28T18:01:20;3.40;99.90
27384;DHT22;14851;51.166;4.760;2023-02-28T18:03:47;3.30;99.90
27384;DHT22;14851;51.166;4.760;2023-02-28T18:06:20;3.30;99.90
27384;DHT22;14851;51.166;4.760;2023-02-28T18:08:47;3.20;99.90
27384;DHT22;14851;51.166;4.760;2023-02-28T18:11:14;3.20;99.90
27384;DHT22;14851;51.166;4.760;2023-02-28T18:13:51;3.10;99.90
27384;DHT22;14851;51.166;4.760;2023-02-28T18:16:18;3.00;99.90
27384;DHT22;14851;51.166;4.760;2023-02-28T18:18:45;3.00;99.90
27384;DHT22;14851;51.166;4.760;2023-02-28T18:21:12;2.80;99.90
27384;DHT22;14851;51.166;4.760;2023-02-28T18:23:39;2.80;99.90
27384;DHT22;14851;51.166;4.760;2023-02-28T18:26:16;2.80;99.90
27384;DHT22;14851;51.166;4.760;2023-02-28T18:28:42;3.00;99.90
27384;DHT22;14851;51.166;4.760;2023-02-28T18:31:17;3.10;99.90
27384;DHT22;14851;51.166;4.760;2023-02-28T18:33:46;3.10;99.90